createdAt,value
2018-03-03T00:01:58.346Z,89.40
2018-03-03T00:04:25.776Z,89.80
2018-03-03T00:06:53.224Z,89.50
2018-03-03T00:09:20.693Z,89.70
2018-03-03T00:11:48.668Z,89.50
2018-03-03T00:14:16.133Z,89.10
2018-03-03T00:16:43.589Z,89.00
2018-03-03T00:19:12.306Z,89.20
2018-03-03T00:21:39.777Z,89.00
2018-03-03T00:24:07.231Z,89.40
2018-03-03T00:26:34.671Z,89.40
2018-03-03T00:29:02.143Z,89.30
2018-03-03T00:31:29.604Z,89.30
2018-03-03T00:33:57.465Z,89.40
2018-03-03T00:36:24.911Z,89.40
2018-03-03T00:38:52.354Z,89.50
2018-03-03T00:41:19.858Z,89.50
2018-03-03T00:43:47.314Z,89.50
2018-03-03T00:46:15.193Z,89.50
2018-03-03T00:48:42.630Z,89.40
2018-03-03T00:51:10.501Z,89.30
2018-03-03T00:53:38.340Z,89.70
2018-03-03T00:56:05.805Z,89.70
2018-03-03T00:58:33.279Z,90.10
2018-03-03T01:01:01.153Z,90.30
2018-03-03T01:03:28.612Z,90.30
2018-03-03T01:05:56.073Z,90.00
2018-03-03T01:08:23.522Z,90.20
2018-03-03T01:10:50.966Z,90.70
2018-03-03T01:13:19.925Z,90.90
2018-03-03T01:15:47.389Z,90.90
2018-03-03T01:18:14.851Z,90.80
2018-03-03T01:20:42.362Z,91.10
2018-03-03T01:23:09.815Z,91.10
2018-03-03T01:25:37.277Z,91.20
2018-03-03T01:28:04.696Z,90.80
2018-03-03T01:30:32.529Z,90.60
2018-03-03T01:33:00.164Z,90.60
2018-03-03T01:35:27.608Z,90.80
2018-03-03T01:37:55.035Z,90.90
2018-03-03T01:40:22.469Z,91.20
2018-03-03T01:42:49.905Z,91.50
2018-03-03T01:45:17.332Z,91.80
2018-03-03T01:47:44.772Z,91.90
2018-03-03T01:50:12.587Z,92.10
2018-03-03T01:52:40.043Z,92.10
2018-03-03T01:55:07.476Z,92.30
2018-03-03T01:57:34.921Z,92.40
2018-03-03T02:00:02.367Z,92.60
2018-03-03T02:02:30.384Z,93.00
2018-03-03T02:04:57.814Z,92.70
2018-03-03T02:07:25.247Z,92.80
2018-03-03T02:09:52.676Z,92.80
2018-03-03T02:12:20.112Z,92.90
2018-03-03T02:14:47.538Z,93.30
2018-03-03T02:17:15.001Z,93.00
2018-03-03T02:19:42.445Z,92.70
2018-03-03T02:22:09.917Z,92.80
2018-03-03T02:24:37.346Z,92.80
2018-03-03T02:27:04.806Z,92.90
2018-03-03T02:29:32.232Z,93.00
2018-03-03T02:31:59.672Z,93.10
2018-03-03T02:34:27.985Z,93.10
2018-03-03T02:36:55.400Z,93.20
2018-03-03T02:39:22.845Z,93.10
2018-03-03T02:41:50.303Z,93.20
2018-03-03T02:44:17.736Z,93.00
2018-03-03T02:46:45.162Z,93.00
2018-03-03T02:49:12.996Z,93.20
2018-03-03T02:51:40.438Z,93.20
2018-03-03T02:54:07.892Z,93.10
2018-03-03T02:56:36.531Z,92.80
2018-03-03T02:59:03.945Z,92.70
2018-03-03T03:01:31.376Z,92.70
2018-03-03T03:03:58.812Z,92.70
2018-03-03T03:06:26.248Z,93.00
2018-03-03T03:08:54.084Z,93.10
2018-03-03T03:11:21.517Z,93.10
2018-03-03T03:13:49.008Z,93.10
2018-03-03T03:16:16.432Z,93.20
2018-03-03T03:18:43.921Z,93.20
2018-03-03T03:21:11.335Z,93.10
2018-03-03T03:23:38.775Z,93.10
2018-03-03T03:26:06.228Z,93.10
2018-03-03T03:28:33.652Z,93.00
2018-03-03T03:31:01.110Z,93.00
2018-03-03T03:33:28.545Z,93.30
2018-03-03T03:35:55.976Z,93.70
2018-03-03T03:38:23.429Z,93.60
2018-03-03T03:40:50.860Z,93.30
2018-03-03T03:43:18.303Z,93.30
2018-03-03T03:45:46.127Z,93.60
2018-03-03T03:48:13.561Z,93.60
2018-03-03T03:50:40.996Z,93.70
2018-03-03T03:53:08.425Z,93.70
2018-03-03T03:55:35.856Z,93.80
2018-03-03T03:58:03.292Z,94.00
2018-03-03T04:00:30.733Z,94.00
2018-03-03T04:02:58.186Z,93.90
2018-03-03T04:05:25.631Z,93.60
2018-03-03T04:07:53.453Z,93.60
2018-03-03T04:10:20.901Z,93.60
2018-03-03T04:12:48.337Z,93.60
2018-03-03T04:15:15.773Z,93.30
2018-03-03T04:17:43.201Z,93.30
2018-03-03T04:20:10.636Z,93.30
2018-03-03T04:22:38.077Z,93.30
2018-03-03T04:25:05.557Z,93.40
2018-03-03T04:27:32.996Z,93.30
2018-03-03T04:30:00.429Z,93.30
2018-03-03T04:32:31.048Z,93.40
2018-03-03T04:34:58.481Z,93.70
2018-03-03T04:37:25.912Z,93.60
2018-03-03T04:39:53.340Z,93.60
2018-03-03T04:42:20.821Z,93.60
2018-03-03T04:44:48.265Z,93.70
2018-03-03T04:47:15.709Z,93.60
2018-03-03T04:49:43.175Z,93.60
2018-03-03T04:52:10.621Z,93.60
2018-03-03T04:54:38.099Z,93.60
2018-03-03T04:57:05.529Z,93.60
2018-03-03T04:59:38.616Z,93.10
2018-03-03T05:02:06.064Z,93.00
2018-03-03T05:04:34.112Z,93.30
2018-03-03T05:10:12.597Z,93.50
2018-03-03T05:12:40.045Z,93.60
2018-03-03T05:15:13.185Z,93.50
2018-03-03T05:17:46.317Z,93.50
2018-03-03T05:23:36.548Z,93.50
2018-03-03T05:26:09.617Z,93.40
2018-03-03T05:28:42.784Z,93.20
2018-03-03T05:31:25.110Z,93.30
2018-03-03T05:33:58.132Z,93.40
2018-03-03T05:36:41.351Z,93.10
2018-03-03T05:39:14.509Z,92.80
2018-03-03T05:41:47.640Z,92.80
2018-03-03T05:44:20.769Z,92.90
2018-03-03T05:46:50.145Z,93.10
2018-03-03T05:49:32.513Z,93.10
2018-03-03T05:52:05.524Z,93.30
2018-03-03T05:54:48.742Z,93.40
2018-03-03T05:57:32.868Z,93.50
2018-03-03T06:00:02.084Z,93.50
2018-03-03T06:02:35.196Z,93.50
2018-03-03T06:05:08.308Z,93.70
2018-03-03T06:07:54.860Z,93.50
2018-03-03T06:10:24.858Z,93.50
2018-03-03T06:12:52.314Z,93.60
2018-03-03T06:15:19.749Z,93.40
2018-03-03T06:17:47.175Z,93.50
2018-03-03T06:20:14.611Z,93.40
2018-03-03T06:22:42.044Z,93.30
2018-03-03T06:25:09.505Z,93.30
2018-03-03T06:27:36.946Z,93.40
2018-03-03T06:30:04.397Z,93.50
2018-03-03T06:32:31.863Z,93.30
2018-03-03T06:34:59.321Z,93.20
2018-03-03T06:37:26.784Z,93.00
2018-03-03T06:39:54.583Z,93.00
2018-03-03T06:42:22.104Z,93.00
2018-03-03T06:44:49.532Z,92.90
2018-03-03T06:47:16.960Z,92.70
2018-03-03T06:49:44.397Z,92.50
2018-03-03T06:52:11.859Z,92.40
2018-03-03T06:54:39.301Z,92.30
2018-03-03T06:57:06.739Z,92.40
2018-03-03T06:59:34.197Z,92.10
2018-03-03T07:02:01.634Z,91.90
2018-03-03T07:04:29.455Z,91.90
2018-03-03T07:06:56.888Z,91.90
2018-03-03T07:09:24.336Z,91.70
2018-03-03T07:11:51.780Z,91.60
2018-03-03T07:17:27.240Z,91.40
2018-03-03T07:19:54.697Z,91.40
2018-03-03T07:22:22.139Z,91.50
2018-03-03T07:24:49.576Z,91.60
2018-03-03T07:27:17.008Z,91.60
2018-03-03T07:29:44.454Z,91.50
2018-03-03T07:32:11.884Z,91.50
2018-03-03T07:34:39.319Z,91.20
2018-03-03T07:37:06.753Z,91.30
2018-03-03T07:39:34.240Z,91.10
2018-03-03T07:42:02.058Z,90.80
2018-03-03T07:44:29.597Z,90.90
2018-03-03T07:46:57.043Z,91.00
2018-03-03T07:49:24.481Z,91.00
2018-03-03T07:51:51.915Z,91.00
2018-03-03T07:54:19.748Z,90.90
2018-03-03T07:59:47.766Z,90.60
2018-03-03T08:02:15.254Z,90.50
2018-03-03T08:04:42.684Z,90.50
2018-03-03T08:07:10.522Z,90.30
2018-03-03T08:09:37.956Z,90.30
2018-03-03T08:12:05.394Z,90.20
2018-03-03T08:27:04.913Z,89.40
2018-03-03T08:29:32.348Z,89.30
2018-03-03T08:32:00.132Z,89.50
2018-03-03T08:34:27.562Z,89.50
2018-03-03T08:36:55.006Z,89.50
2018-03-03T08:39:22.459Z,89.20
2018-03-03T08:41:50.271Z,89.20
2018-03-03T08:44:17.696Z,89.20
2018-03-03T08:46:45.143Z,89.00
2018-03-03T08:49:12.574Z,89.10
2018-03-03T08:51:40.422Z,89.10
2018-03-03T08:54:07.849Z,89.20
2018-03-03T08:56:35.297Z,89.00
2018-03-03T08:59:02.736Z,88.90
2018-03-03T09:01:30.163Z,89.10
2018-03-03T09:03:58.000Z,88.60
2018-03-03T09:06:25.432Z,88.60
2018-03-03T09:08:52.922Z,88.80
2018-03-03T09:11:20.349Z,88.50
2018-03-03T09:13:47.790Z,88.40
2018-03-03T09:16:15.233Z,88.50
2018-03-03T09:18:42.683Z,88.20
2018-03-03T09:21:10.116Z,87.70
2018-03-03T09:23:37.953Z,87.10
2018-03-03T09:26:05.388Z,87.20
2018-03-03T09:28:32.868Z,87.30
2018-03-03T09:31:00.293Z,87.20
2018-03-03T09:33:27.736Z,86.60
2018-03-03T09:35:55.160Z,86.40
2018-03-03T09:38:22.598Z,86.20
2018-03-03T09:40:50.024Z,86.10
2018-03-03T09:43:17.456Z,85.90
2018-03-03T09:45:44.880Z,85.80
2018-03-03T09:48:12.317Z,86.00
2018-03-03T09:50:39.745Z,85.90
2018-03-03T09:53:07.284Z,85.70
2018-03-03T09:55:34.712Z,86.00
2018-03-03T09:58:02.138Z,85.60
2018-03-03T10:00:30.005Z,85.60
2018-03-03T10:02:57.440Z,85.90
2018-03-03T10:05:24.896Z,85.50
2018-03-03T10:07:52.356Z,85.20
2018-03-03T10:10:19.821Z,85.50
2018-03-03T10:12:47.256Z,85.50
2018-03-03T10:15:14.703Z,85.50
2018-03-03T10:17:42.139Z,85.10
2018-03-03T10:20:09.588Z,85.60
2018-03-03T10:22:37.028Z,85.90
2018-03-03T10:25:04.464Z,85.90
2018-03-03T10:27:31.956Z,85.90
2018-03-03T10:29:59.389Z,86.20
2018-03-03T10:32:26.822Z,85.70
2018-03-03T10:34:54.301Z,85.70
2018-03-03T10:37:21.768Z,86.00
2018-03-03T10:39:49.263Z,86.00
2018-03-03T10:42:16.639Z,86.00
2018-03-03T10:44:44.084Z,85.80
2018-03-03T10:47:11.508Z,85.30
2018-03-03T10:49:39.018Z,85.10
2018-03-03T10:52:06.409Z,85.20
2018-03-03T10:54:33.836Z,85.10
2018-03-03T10:57:01.288Z,85.30
2018-03-03T10:59:28.742Z,85.30
2018-03-03T11:01:56.202Z,85.60
2018-03-03T11:04:23.641Z,85.60
2018-03-03T11:06:51.073Z,85.10
2018-03-03T11:09:18.496Z,84.60
2018-03-03T11:11:45.940Z,84.40
2018-03-03T11:14:14.081Z,84.70
2018-03-03T11:16:41.503Z,84.90
2018-03-03T11:19:08.938Z,84.90
2018-03-03T11:21:36.381Z,85.00
2018-03-03T11:24:03.810Z,84.80
2018-03-03T11:26:31.264Z,85.20
2018-03-03T11:28:58.679Z,84.80
2018-03-03T11:31:26.116Z,84.80
2018-03-03T11:33:53.549Z,85.20
2018-03-03T11:36:21.005Z,84.90
2018-03-03T11:38:49.192Z,84.60
2018-03-03T11:41:16.637Z,84.50
2018-03-03T11:43:44.077Z,84.50
2018-03-03T11:46:13.410Z,84.30
2018-03-03T11:48:40.824Z,84.60
2018-03-03T11:51:08.239Z,84.30
2018-03-03T11:53:35.680Z,84.40
2018-03-03T11:56:03.116Z,84.60
2018-03-03T11:58:30.586Z,84.80
2018-03-03T12:00:58.009Z,84.80
2018-03-03T12:03:25.445Z,84.70
2018-03-03T12:05:52.885Z,84.90
2018-03-03T12:08:20.304Z,84.60
2018-03-03T12:10:47.741Z,84.00
2018-03-03T12:13:15.183Z,83.40
2018-03-03T12:15:43.244Z,83.30
2018-03-03T12:18:11.076Z,84.00
2018-03-03T12:20:38.510Z,84.00
2018-03-03T12:23:05.949Z,83.90
2018-03-03T12:25:33.397Z,83.40
2018-03-03T12:28:00.831Z,83.60
2018-03-03T12:30:28.261Z,83.50
2018-03-03T12:32:55.696Z,83.10
2018-03-03T12:35:23.116Z,83.30
2018-03-03T12:37:50.565Z,83.30
2018-03-03T12:40:18.395Z,82.90
2018-03-03T12:42:45.820Z,82.90
2018-03-03T12:45:13.253Z,82.90
2018-03-03T12:47:40.684Z,83.20
2018-03-03T12:50:08.122Z,83.20
2018-03-03T12:52:35.558Z,83.10
2018-03-03T12:55:02.995Z,82.90
2018-03-03T12:57:30.424Z,82.80
2018-03-03T12:59:57.881Z,83.40
2018-03-03T13:02:25.329Z,83.60
2018-03-03T13:04:53.157Z,83.30
2018-03-03T13:07:20.585Z,83.30
2018-03-03T13:09:48.022Z,83.20
2018-03-03T13:12:15.508Z,82.90
2018-03-03T13:14:42.955Z,83.30
2018-03-03T13:17:10.389Z,83.00
2018-03-03T13:19:37.829Z,83.40
2018-03-03T13:22:05.652Z,83.70
2018-03-03T13:24:33.089Z,83.70
2018-03-03T13:27:00.521Z,84.00
2018-03-03T13:29:28.348Z,84.20
2018-03-03T13:31:55.777Z,84.20
2018-03-03T13:34:23.236Z,84.30
2018-03-03T13:36:50.664Z,83.70
2018-03-03T13:39:18.097Z,83.40
2018-03-03T13:41:45.532Z,82.90
2018-03-03T13:44:13.632Z,83.70
2018-03-03T13:46:41.460Z,83.20
2018-03-03T13:49:08.896Z,83.20
2018-03-03T13:51:36.317Z,83.00
2018-03-03T13:54:03.756Z,83.00
2018-03-03T13:56:31.196Z,83.20
2018-03-03T13:58:58.628Z,83.40
2018-03-03T14:01:26.084Z,83.20
2018-03-03T14:03:53.508Z,83.30
2018-03-03T14:06:20.941Z,83.20
2018-03-03T14:08:48.788Z,83.40
2018-03-03T14:11:16.228Z,83.40
2018-03-03T14:13:43.682Z,83.60
2018-03-03T14:16:11.137Z,83.70
2018-03-03T14:18:38.588Z,83.90
2018-03-03T14:21:06.025Z,83.90
2018-03-03T14:23:33.456Z,83.60
2018-03-03T14:26:00.881Z,83.80
2018-03-03T14:28:28.320Z,83.70
2018-03-03T14:30:55.765Z,84.10
2018-03-03T14:33:23.200Z,84.00
2018-03-03T14:35:50.666Z,84.00
2018-03-03T14:38:18.114Z,84.10
2018-03-03T14:40:45.564Z,84.20
2018-03-03T14:43:12.993Z,84.20
2018-03-03T14:45:40.456Z,84.00
2018-03-03T14:48:08.302Z,84.00
2018-03-03T14:50:35.743Z,84.00
2018-03-03T14:53:03.196Z,84.10
2018-03-03T14:55:30.626Z,84.30
2018-03-03T14:57:58.073Z,84.50
2018-03-03T15:00:25.504Z,84.20
2018-03-03T15:02:53.340Z,84.00
2018-03-03T15:05:20.784Z,84.00
2018-03-03T15:07:48.236Z,83.90
2018-03-03T15:10:15.665Z,84.00
2018-03-03T15:12:43.097Z,84.50
2018-03-03T15:15:10.524Z,84.60
2018-03-03T15:17:37.960Z,84.50
2018-03-03T15:20:05.390Z,84.30
2018-03-03T15:22:32.821Z,84.60
2018-03-03T15:25:00.648Z,84.40
2018-03-03T15:27:28.077Z,84.40
2018-03-03T15:29:56.421Z,84.50
2018-03-03T15:32:24.247Z,84.70
2018-03-03T15:34:51.685Z,84.70
2018-03-03T15:37:19.121Z,84.60
2018-03-03T15:39:46.544Z,84.90
2018-03-03T15:42:13.985Z,85.10
2018-03-03T15:44:41.420Z,85.00
2018-03-03T15:47:08.845Z,85.20
2018-03-03T15:49:36.269Z,85.20
2018-03-03T15:52:04.102Z,85.40
2018-03-03T15:54:31.534Z,85.40
2018-03-03T15:56:58.963Z,85.30
2018-03-03T15:59:26.393Z,85.40
2018-03-03T16:01:53.830Z,85.30
2018-03-03T16:04:21.258Z,85.40
2018-03-03T16:06:48.680Z,85.60
2018-03-03T16:09:16.549Z,85.80
2018-03-03T16:11:44.364Z,85.90
2018-03-03T16:14:11.826Z,85.90
2018-03-03T16:16:39.249Z,86.10
2018-03-03T16:19:06.709Z,86.20
2018-03-03T16:21:34.108Z,86.40
2018-03-03T16:24:01.538Z,86.50
2018-03-03T16:26:28.972Z,86.40
2018-03-03T16:28:56.397Z,86.40
2018-03-03T16:31:24.240Z,86.60
2018-03-03T16:33:51.657Z,86.60
2018-03-03T16:36:19.091Z,86.60
2018-03-03T16:38:46.520Z,86.60
2018-03-03T16:41:13.964Z,86.50
2018-03-03T16:43:41.404Z,86.10
2018-03-03T16:46:08.842Z,86.00
2018-03-03T16:48:36.260Z,85.80
2018-03-03T16:51:04.088Z,85.90
2018-03-03T16:53:31.566Z,85.90
2018-03-03T16:55:58.980Z,86.00
2018-03-03T16:58:26.406Z,86.10
2018-03-03T17:00:54.229Z,86.10
2018-03-03T17:03:21.697Z,86.10
2018-03-03T17:05:49.129Z,86.20
2018-03-03T17:08:16.550Z,86.30
2018-03-03T17:10:43.983Z,86.30
2018-03-03T17:13:11.803Z,86.50
2018-03-03T17:15:39.241Z,86.50
2018-03-03T17:18:06.666Z,86.70
2018-03-03T17:20:34.105Z,86.90
2018-03-03T17:23:01.525Z,86.90
2018-03-03T17:25:28.953Z,86.90
2018-03-03T17:27:56.384Z,86.90
2018-03-03T17:30:24.220Z,87.10
2018-03-03T17:32:51.688Z,87.10
2018-03-03T17:35:19.233Z,87.10
2018-03-03T17:37:46.668Z,87.10
2018-03-03T17:40:14.104Z,87.20
2018-03-03T17:42:41.550Z,87.30
2018-03-03T17:45:08.976Z,87.20
2018-03-03T17:47:36.416Z,87.40
2018-03-03T17:50:03.869Z,87.30
2018-03-03T17:52:36.017Z,87.40
2018-03-03T17:57:41.364Z,87.60
2018-03-03T18:00:08.876Z,87.60
2018-03-03T18:02:36.351Z,87.80
2018-03-03T18:05:04.212Z,87.80
2018-03-03T18:07:31.660Z,87.80
2018-03-03T18:09:59.119Z,87.80
2018-03-03T18:12:27.480Z,87.90
2018-03-03T18:14:54.920Z,87.80
2018-03-03T18:17:22.386Z,88.30
2018-03-03T18:19:50.193Z,88.20
2018-03-03T18:22:18.044Z,88.10
2018-03-03T18:24:45.500Z,88.10
2018-03-03T18:27:13.517Z,88.00
2018-03-03T18:29:40.958Z,88.00
2018-03-03T18:32:10.716Z,88.20
2018-03-03T18:37:40.036Z,88.30
2018-03-03T18:40:07.484Z,88.50
2018-03-03T18:42:34.914Z,88.30
2018-03-03T18:45:02.340Z,88.70
2018-03-03T18:47:29.781Z,88.70
2018-03-03T18:49:57.216Z,88.50
2018-03-03T18:52:24.649Z,88.50
2018-03-03T18:54:52.076Z,88.40
2018-03-03T18:57:19.509Z,88.30
2018-03-03T18:59:47.341Z,88.30
2018-03-03T19:02:14.765Z,88.30
2018-03-03T19:04:42.204Z,88.20
2018-03-03T19:07:09.629Z,88.40
2018-03-03T19:09:37.075Z,88.20
2018-03-03T19:12:04.535Z,88.00
2018-03-03T19:14:33.154Z,88.10
2018-03-03T19:17:00.608Z,87.90
2018-03-03T19:19:28.437Z,88.00
2018-03-03T19:21:55.869Z,88.00
2018-03-03T19:24:23.302Z,87.80
2018-03-03T19:26:50.729Z,87.80
2018-03-03T19:29:18.167Z,87.50
2018-03-03T19:31:45.597Z,87.20
2018-03-03T19:34:13.074Z,86.90
2018-03-03T19:36:40.498Z,86.90
2018-03-03T19:39:07.946Z,86.40
2018-03-03T19:41:35.403Z,86.30
2018-03-03T19:44:02.841Z,86.30
2018-03-03T19:46:30.661Z,86.50
2018-03-03T19:48:58.100Z,86.50
2018-03-03T19:51:25.548Z,86.40
2018-03-03T19:53:52.977Z,86.40
2018-03-03T19:56:20.406Z,86.40
2018-03-03T19:58:47.941Z,86.40
2018-03-03T20:01:15.385Z,86.30
2018-03-03T20:03:42.813Z,86.30
2018-03-03T20:06:10.240Z,86.30
2018-03-03T20:08:37.680Z,86.30
2018-03-03T20:11:05.113Z,86.10
2018-03-03T20:13:32.531Z,86.10
2018-03-03T20:15:59.988Z,86.30
2018-03-03T20:18:27.401Z,86.20
2018-03-03T20:20:54.828Z,86.20
2018-03-03T20:23:22.281Z,86.40
2018-03-03T20:25:49.784Z,86.10
2018-03-03T20:28:17.197Z,86.00
2018-03-03T20:30:44.645Z,86.00
2018-03-03T20:33:12.077Z,85.90
2018-03-03T20:35:39.909Z,85.80
2018-03-03T20:38:07.359Z,85.80
2018-03-03T20:40:34.794Z,85.90
2018-03-03T20:43:02.212Z,86.10
2018-03-03T20:45:30.046Z,85.90
2018-03-03T20:47:57.534Z,85.90
2018-03-03T20:50:25.378Z,85.60
2018-03-03T20:52:52.805Z,85.60
2018-03-03T20:55:20.243Z,85.70
2018-03-03T20:57:47.670Z,85.90
2018-03-03T21:00:15.109Z,86.00
2018-03-03T21:02:42.540Z,86.20
2018-03-03T21:05:09.985Z,86.30
2018-03-03T21:07:37.412Z,86.80
2018-03-03T21:10:04.847Z,86.80
2018-03-03T21:12:32.677Z,86.90
2018-03-03T21:15:00.132Z,86.90
2018-03-03T21:17:27.565Z,86.80
2018-03-03T21:19:54.996Z,86.90
2018-03-03T21:22:22.454Z,87.30
2018-03-03T21:24:49.880Z,87.30
2018-03-03T21:27:17.333Z,87.40
2018-03-03T21:29:44.766Z,87.40
2018-03-03T21:32:12.205Z,87.40
2018-03-03T21:34:39.643Z,88.00
2018-03-03T21:37:07.092Z,88.20
2018-03-03T21:39:34.537Z,88.20
2018-03-03T21:42:02.375Z,88.60
2018-03-03T21:44:29.796Z,88.60
2018-03-03T21:46:57.224Z,88.70
2018-03-03T21:49:24.660Z,88.70
2018-03-03T21:51:52.097Z,89.20
2018-03-03T21:54:19.521Z,89.40
2018-03-03T21:56:46.948Z,89.50
2018-03-03T21:59:14.377Z,89.70
2018-03-03T22:01:42.215Z,89.70
2018-03-03T22:04:09.648Z,89.70
2018-03-03T22:06:37.111Z,89.80
2018-03-03T22:09:04.541Z,89.80
2018-03-03T22:11:32.048Z,89.90
2018-03-03T22:13:59.466Z,89.70
2018-03-03T22:16:26.900Z,89.70
2018-03-03T22:18:54.340Z,90.00
2018-03-03T22:21:22.204Z,90.30
2018-03-03T22:23:49.677Z,90.30
2018-03-03T22:26:17.117Z,90.30
2018-03-03T22:28:44.590Z,90.20
2018-03-03T22:31:12.958Z,90.20
2018-03-03T22:33:40.613Z,90.40
2018-03-03T22:36:08.182Z,90.50
2018-03-03T22:38:36.493Z,90.50
2018-03-03T22:41:03.940Z,90.30
2018-03-03T22:46:25.114Z,90.20
2018-03-03T22:48:53.291Z,90.00
2018-03-03T22:51:20.746Z,90.30
2018-03-03T22:53:48.218Z,90.60
2018-03-03T22:56:15.649Z,90.70
2018-03-03T22:58:43.150Z,90.80
2018-03-03T23:01:10.827Z,90.60
2018-03-03T23:03:38.346Z,90.90
2018-03-03T23:06:06.346Z,90.80
2018-03-03T23:08:33.799Z,91.20
2018-03-03T23:11:01.647Z,91.30
2018-03-03T23:13:29.098Z,91.30
2018-03-03T23:15:57.255Z,91.30
2018-03-03T23:18:24.713Z,91.50
2018-03-03T23:20:52.171Z,91.40
2018-03-03T23:23:19.613Z,91.20
2018-03-03T23:25:47.091Z,91.10
2018-03-03T23:28:14.536Z,91.40
2018-03-03T23:30:41.986Z,91.40
2018-03-03T23:33:09.740Z,91.20
2018-03-03T23:35:37.206Z,91.40
2018-03-03T23:38:04.694Z,91.50
2018-03-03T23:40:32.210Z,91.70
2018-03-03T23:42:59.658Z,91.70
2018-03-03T23:45:27.106Z,91.50
2018-03-03T23:47:54.591Z,91.70
2018-03-03T23:50:22.056Z,91.70
2018-03-03T23:52:49.526Z,91.80
2018-03-03T23:55:16.969Z,91.90
2018-03-03T23:57:44.441Z,91.60
